Aviation Digital Data Service (ADDS)

Output produced by METARs form (2332 UTC 23 May 2022)
found at http://www.aviationweather.gov/metar/data/
 
VVDN 232300Z VRB02KT 8000 FEW015 BKN060 27/24 Q1006 NOSIG
TAF VVDN 231700Z 2318/2418 23004KT 8000 FEW015 SCT050 
     BECMG 2405/2406 11010KT 
     TEMPO 2408/2413 TS FEW015 FEW017CB SCT050 
     BECMG 2412/2413 23004KT
       
VVNB 232300Z VRB02KT 3800 TSRA FEW002 SCT030CB BKN039 23/23 Q1006 BECMG TL0000 6000 -TSRA
TAF AMD VVNB 232100Z 2321/2418 31005KT 7000 SCT010 BKN035 
     TEMPO 2321/2324 2500 +TSRA BKN005 FEW023CB OVC030 
     TEMPO 2403/2408 4000 RA SCT008 BKN030
       
VVTS 232300Z 19005KT 150V220 9999 FEW015 SCT050 27/26 Q1008 NOSIG
TAF VVTS 231700Z 2318/2424 24008KT 9999 SCT017 SCT040 
     TEMPO 2406/2412 24015G28KT 3000 TSRA SCT013 SCT015CB